This is the latest recevied weather packets stored in our database for station/object SV9FBP. If no packets are shown the sender has not sent any weather packets the latest 10 day(s).
| Time | Temp. | Humidity | Pressure | Rain* | Wind** | Luminosity | Snow |
|---|---|---|---|---|---|---|---|
| 1777369293 | 22.78° C | 44% | 1013.4 hPa | 0 mm | - | - | - |
| 1777368392 | 22.78° C | 42% | 1013.5 hPa | 0 mm | - | - | - |
| 1777367491 | 22.78° C | 43% | 1013.4 hPa | 0 mm | - | - | - |
| 1777366587 | 22.22° C | 47% | 1013.4 hPa | 0 mm | - | - | - |
| 1777365685 | 22.22° C | 47% | 1013.3 hPa | 0 mm | - | - | - |
| 1777364782 | 21.67° C | 50% | 1013.2 hPa | 0 mm | - | - | - |
| 1777363880 | 21.67° C | 50% | 1013.4 hPa | 0 mm | - | - | - |
| 1777362978 | 21.11° C | 51% | 1013.4 hPa | 0 mm | - | - | - |
| 1777362076 | 21.11° C | 52% | 1013.2 hPa | 0 mm | - | - | - |
| 1777361174 | 20.56° C | 53% | 1013.4 hPa | 0 mm | - | - | - |
| 1777360271 | 20.56° C | 53% | 1013.1 hPa | 0 mm | - | - | - |
| 1777359369 | 20.56° C | 53% | 1013.1 hPa | 0 mm | - | - | - |
| 1777358467 | 20° C | 53% | 1013 hPa | 0 mm | - | - | - |
| 1777357565 | 20° C | 54% | 1013 hPa | 0 mm | - | - | - |
| 1777356663 | 20° C | 54% | 1012.7 hPa | 0 mm | - | - | - |
| 1777355761 | 19.44° C | 55% | 1012.7 hPa | 0 mm | - | - | - |
| 1777354859 | 19.44° C | 57% | 1012.6 hPa | 0 mm | - | - | - |
| 1777353957 | 18.89° C | 60% | 1012.7 hPa | 0 mm | - | - | - |
| 1777353055 | 18.33° C | 61% | 1012.6 hPa | 0 mm | - | - | - |
| 1777352152 | 17.78° C | 62% | 1012.6 hPa | 0 mm | - | - | - |
| 1777351250 | 17.78° C | 61% | 1012.5 hPa | 0 mm | - | - | - |
| 1777350350 | 17.22° C | 65% | 1012.2 hPa | 0 mm | - | - | - |
| 1777349445 | 16.11° C | 67% | 1012.3 hPa | 0 mm | - | - | - |
| 1777348544 | 16.11° C | 67% | 1012.2 hPa | 0 mm | - | - | - |
| 1777347641 | 16.11° C | 67% | 1012.2 hPa | 0 mm | - | - | - |
* Rain latest hour (hover to see other rain measurements)
** Current wind speed in m/s (hover to see current wind gust speed)